Time;durP1;ratioP1;P1;durP2;ratioP2;P2;SDS_P1;SDS_P2;PMS_P1;PMS_P2;Temp;Humidity;BMP_temperature;BMP_pressure;BME280_temperature;BME280_humidity;BME280_pressure;Samples;Min_cycle;Max_cycle;Signal;HPM_P1;HPM_P2
2020/12/04 00:01:23;;;;;;;18.73;5.50;;;28.00;86.60;;;;;;5007502;28;20105;-92
2020/12/04 00:03:59;;;;;;;25.10;12.30;;;28.00;87.60;;;;;;4931987;29;20055;-90
2020/12/04 00:06:52;;;;;;;25.10;9.27;;;27.90;87.20;;;;;;4983250;28;20026;-90
2020/12/04 00:09:19;;;;;;;16.45;6.28;;;27.80;87.60;;;;;;5012427;28;20046;-93
2020/12/04 00:11:49;;;;;;;14.68;5.25;;;27.80;87.10;;;;;;5032395;28;20018;-90
2020/12/04 00:14:19;;;;;;;14.73;4.88;;;27.90;86.50;;;;;;5015275;28;20035;-91
2020/12/04 00:16:45;;;;;;;15.68;4.57;;;27.90;88.90;;;;;;5031240;28;20025;-91
2020/12/04 00:19:32;;;;;;;14.43;4.47;;;27.80;87.90;;;;;;5050876;28;20109;-91
2020/12/04 00:22:13;;;;;;;15.70;4.70;;;27.80;88.70;;;;;;5031712;28;20038;-92
2020/12/04 00:24:41;;;;;;;12.70;4.47;;;27.70;88.90;;;;;;5046362;28;20064;-93
2020/12/04 00:27:08;;;;;;;28.70;12.75;;;27.70;88.70;;;;;;5027636;28;20026;-91
2020/12/04 00:29:34;;;;;;;32.28;14.73;;;27.70;88.80;;;;;;5028755;28;20301;-93
2020/12/04 00:32:01;;;;;;;12.73;6.78;;;27.60;88.60;;;;;;5028877;28;20021;-91
2020/12/04 00:34:37;;;;;;;12.25;6.43;;;27.50;89.30;;;;;;5035377;28;20024;-91
2020/12/04 00:37:04;;;;;;;21.15;7.93;;;27.50;88.60;;;;;;5088203;28;20021;-91
2020/12/04 00:39:31;;;;;;;18.90;7.97;;;27.60;89.20;;;;;;5086504;28;20021;-89
2020/12/04 00:42:01;;;;;;;13.23;6.88;;;27.70;89.10;;;;;;5086766;28;20314;-91
2020/12/04 00:44:54;;;;;;;14.00;6.07;;;27.60;89.70;;;;;;5088270;28;20012;-94
2020/12/04 00:47:21;;;;;;;14.65;6.55;;;27.60;88.60;;;;;;5064945;28;20074;-94
2020/12/04 00:49:48;;;;;;;6.97;4.20;;;27.70;89.30;;;;;;5087337;28;20020;-94
2020/12/04 00:52:17;;;;;;;10.05;5.65;;;27.70;88.80;;;;;;5086719;28;20051;-92
2020/12/04 00:54:44;;;;;;;12.63;9.70;;;27.70;89.70;;;;;;5071070;28;20023;-94
2020/12/04 00:57:10;;;;;;;69.38;44.97;;;27.60;89.50;;;;;;5087129;28;20071;-91
2020/12/04 00:59:38;;;;;;;17.73;12.77;;;27.60;89.40;;;;;;5085629;28;20095;-92
2020/12/04 01:02:07;;;;;;;208.25;118.32;;;27.50;89.60;;;;;;5088978;28;20028;-93
2020/12/04 01:04:36;;;;;;;90.57;52.80;;;27.50;90.30;;;;;;5092094;28;20033;-95
2020/12/04 01:07:04;;;;;;;87.25;53.13;;;27.40;89.80;;;;;;5085082;28;20096;-92
2020/12/04 01:09:34;;;;;;;73.22;48.78;;;27.50;89.90;;;;;;5088244;28;20028;-95
2020/12/04 01:12:32;;;;;;;151.02;98.93;;;27.50;90.00;;;;;;5089442;28;20103;-93
2020/12/04 01:15:05;;;;;;;49.88;31.05;;;27.50;90.20;;;;;;5088155;28;20012;-89
2020/12/04 01:17:33;;;;;;;64.63;42.80;;;27.60;90.20;;;;;;5086462;28;20013;-90
2020/12/04 01:20:02;;;;;;;56.80;38.70;;;27.50;90.10;;;;;;5085726;28;20051;-92
2020/12/04 01:22:31;;;;;;;19.58;13.13;;;27.40;90.20;;;;;;5068845;28;20028;-93
2020/12/04 01:25:01;;;;;;;26.23;16.60;;;27.40;90.10;;;;;;5085699;28;20020;-95
2020/12/04 01:27:28;;;;;;;16.20;8.52;;;27.40;90.30;;;;;;5089019;28;20025;-92
2020/12/04 01:29:55;;;;;;;16.38;11.32;;;27.40;89.70;;;;;;5085761;28;20017;-92
2020/12/04 01:32:21;;;;;;;20.65;13.13;;;27.50;89.60;;;;;;5086507;28;20021;-91
2020/12/04 01:34:48;;;;;;;13.52;7.05;;;27.50;90.40;;;;;;5085880;28;20016;-89
2020/12/04 01:37:15;;;;;;;15.82;11.05;;;27.50;90.90;;;;;;5087210;28;20020;-91
2020/12/04 01:39:42;;;;;;;12.77;6.65;;;27.50;90.00;;;;;;5086881;28;20024;-93
2020/12/04 01:42:11;;;;;;;11.48;5.57;;;27.50;90.30;;;;;;5088407;28;20331;-94
2020/12/04 01:48:03;;;;;;;11.25;5.13;;;27.50;90.30;;;;;;5095739;28;20051;-93
2020/12/04 01:50:33;;;;;;;8.63;4.68;;;27.50;90.40;;;;;;5090914;28;20035;-92
2020/12/04 01:53:04;;;;;;;5.57;3.20;;;27.50;90.20;;;;;;5091777;28;20371;-94
2020/12/04 01:55:31;;;;;;;6.97;3.58;;;27.50;90.30;;;;;;5088548;28;20040;-93
2020/12/04 01:58:03;;;;;;;5.75;2.50;;;27.50;90.00;;;;;;5055522;28;20088;-93
2020/12/04 02:00:36;;;;;;;6.72;3.03;;;27.50;89.90;;;;;;5052988;28;20104;-95
2020/12/04 02:03:06;;;;;;;9.27;4.05;;;27.50;90.00;;;;;;5052258;28;20029;-94
2020/12/04 02:05:35;;;;;;;6.97;2.97;;;27.50;90.00;;;;;;5047317;28;20063;-94
2020/12/04 02:08:20;;;;;;;9.85;3.78;;;27.50;90.10;;;;;;5050173;28;20025;-93
2020/12/04 02:10:54;;;;;;;8.43;2.75;;;27.50;90.10;;;;;;5052009;28;20059;-93
2020/12/04 02:13:25;;;;;;;9.48;4.00;;;27.50;90.30;;;;;;5051708;28;20091;-92
2020/12/04 02:15:52;;;;;;;10.45;2.97;;;27.40;89.90;;;;;;5051864;28;20025;-95
2020/12/04 02:18:19;;;;;;;6.00;2.45;;;27.40;90.50;;;;;;5055065;28;20108;-96
2020/12/04 02:21:12;;;;;;;5.68;1.95;;;27.30;90.40;;;;;;5056159;28;20021;-96
2020/12/04 02:23:46;;;;;;;6.03;1.77;;;27.40;90.20;;;;;;5054341;28;20021;-94
2020/12/04 02:26:21;;;;;;;8.10;2.40;;;27.30;90.30;;;;;;5055643;28;20021;-93
2020/12/04 02:28:48;;;;;;;20.48;4.70;;;27.30;90.20;;;;;;5053007;28;20036;-94
2020/12/04 02:31:21;;;;;;;35.95;5.68;;;27.30;90.60;;;;;;5052417;28;20025;-92
2020/12/04 02:33:48;;;;;;;;;;;27.20;90.60;;;;;;5053395;28;20021;-93
2020/12/04 02:36:25;;;;;;;15.57;3.55;;;27.20;90.40;;;;;;5054985;28;19912;-93
2020/12/04 02:38:56;;;;;;;17.73;4.63;;;27.30;90.90;;;;;;5073613;28;20036;-94
2020/12/04 02:41:22;;;;;;;13.35;4.05;;;27.20;91.00;;;;;;5055248;28;20313;-94
2020/12/04 02:43:49;;;;;;;8.93;2.65;;;27.10;90.90;;;;;;5051106;28;20040;-95
2020/12/04 02:46:26;;;;;;;4.65;1.73;;;27.10;91.20;;;;;;5052434;28;20051;-94
2020/12/04 02:48:54;;;;;;;4.00;1.77;;;27.10;91.60;;;;;;5054131;28;20016;-95
2020/12/04 02:51:21;;;;;;;2.88;1.63;;;26.90;91.80;;;;;;5055261;28;20016;-93
2020/12/04 02:53:51;;;;;;;3.47;1.55;;;26.90;91.90;;;;;;5053867;28;20021;-93
2020/12/04 02:56:18;;;;;;;3.10;1.38;;;27.00;91.40;;;;;;5064914;28;20048;-93
2020/12/04 02:58:52;;;;;;;4.45;1.55;;;26.90;91.80;;;;;;5072119;28;20054;-92
2020/12/04 03:01:25;;;;;;;4.93;1.65;;;27.00;91.30;;;;;;5090914;28;20074;-92
2020/12/04 03:03:56;;;;;;;3.70;1.65;;;26.90;91.50;;;;;;5089336;28;20032;-91
2020/12/04 03:06:23;;;;;;;3.58;1.98;;;27.00;91.40;;;;;;5089443;28;20027;-91
2020/12/04 03:08:53;;;;;;;3.95;2.08;;;27.00;91.80;;;;;;5088748;28;20060;-94
2020/12/04 03:11:27;;;;;;;6.95;1.65;;;26.90;91.90;;;;;;5091401;28;20016;-96
2020/12/04 03:13:54;;;;;;;4.43;1.70;;;26.90;91.80;;;;;;5088605;28;20025;-94
2020/12/04 03:17:13;;;;;;;8.90;1.63;;;26.90;92.00;;;;;;5089972;28;20048;-96
2020/12/04 03:19:38;;;;;;;2.60;1.50;;;26.90;91.90;;;;;;5075163;28;20020;-94
2020/12/04 03:22:06;;;;;;;6.68;1.73;;;26.90;91.90;;;;;;5086787;28;20047;-93
2020/12/04 03:24:33;;;;;;;5.57;1.42;;;26.90;92.10;;;;;;5087056;28;20021;-93
2020/12/04 03:27:00;;;;;;;3.25;1.70;;;26.80;91.70;;;;;;5085966;28;20324;-93
2020/12/04 03:29:30;;;;;;;6.28;1.90;;;26.90;92.00;;;;;;5076804;28;20025;-95
2020/12/04 03:32:03;;;;;;;3.90;1.77;;;26.90;91.70;;;;;;5092951;28;20028;-94
2020/12/04 03:34:30;;;;;;;5.05;1.90;;;26.90;91.90;;;;;;5088547;28;20246;-95
2020/12/04 03:37:03;;;;;;;4.43;1.45;;;26.90;91.70;;;;;;5089433;28;20084;-95
2020/12/04 03:39:32;;;;;;;6.68;2.25;;;26.90;91.60;;;;;;5073541;28;20059;-95
2020/12/04 03:42:02;;;;;;;6.50;2.22;;;26.80;92.00;;;;;;5088934;28;20088;-96
2020/12/04 03:44:28;;;;;;;4.82;1.88;;;26.80;92.00;;;;;;5088695;28;20016;-96
2020/12/04 03:46:55;;;;;;;6.10;1.90;;;26.80;92.20;;;;;;5086793;28;20028;-95
2020/12/04 03:49:22;;;;;;;3.88;1.80;;;26.80;92.40;;;;;;5086482;28;20039;-96
2020/12/04 03:51:48;;;;;;;5.63;1.77;;;26.90;92.30;;;;;;5086475;28;20017;-96
2020/12/04 03:54:15;;;;;;;3.72;1.80;;;26.80;92.60;;;;;;5085503;28;20099;-95
2020/12/04 03:56:42;;;;;;;2.28;1.65;;;26.80;92.60;;;;;;5087598;28;20036;-94
2020/12/04 03:59:12;;;;;;;5.05;1.80;;;26.80;92.60;;;;;;5085421;28;20024;-93
2020/12/04 04:01:39;;;;;;;2.47;1.60;;;26.80;92.30;;;;;;5085452;28;20028;-96
2020/12/04 04:04:14;;;;;;;4.38;2.00;;;26.80;92.10;;;;;;5086152;28;20024;-95
2020/12/04 04:06:43;;;;;;;1.95;1.48;;;26.80;92.40;;;;;;5085161;28;20028;-94
2020/12/04 04:09:10;;;;;;;4.38;1.70;;;26.80;92.20;;;;;;5085317;28;20071;-94
2020/12/04 04:11:44;;;;;;;2.40;1.33;;;26.80;92.50;;;;;;5086269;28;20038;-94
2020/12/04 04:14:11;;;;;;;4.15;1.65;;;26.80;92.90;;;;;;5086975;28;20032;-94
2020/12/04 04:16:38;;;;;;;3.47;1.55;;;26.80;92.50;;;;;;5085463;28;20020;-94
2020/12/04 04:19:07;;;;;;;3.38;1.55;;;26.80;92.30;;;;;;5085099;28;20035;-91
2020/12/04 04:21:39;;;;;;;2.05;1.20;;;26.80;92.70;;;;;;5084228;28;20023;-93
2020/12/04 04:24:09;;;;;;;5.63;1.60;;;26.70;92.60;;;;;;5084491;28;20028;-92
2020/12/04 04:26:36;;;;;;;6.70;1.60;;;26.70;92.90;;;;;;5083957;28;20081;-94
2020/12/04 04:29:03;;;;;;;5.30;1.45;;;26.70;92.50;;;;;;5083926;28;20032;-91
2020/12/04 04:31:30;;;;;;;5.82;1.60;;;26.70;92.30;;;;;;5082990;28;20064;-93
2020/12/04 04:33:56;;;;;;;3.50;1.85;;;26.70;92.80;;;;;;5084203;28;20024;-95
2020/12/04 04:36:23;;;;;;;5.25;1.92;;;26.60;92.80;;;;;;5085983;28;20020;-92
2020/12/04 04:38:50;;;;;;;3.65;1.67;;;26.50;92.90;;;;;;5083704;28;20028;-92
2020/12/04 04:41:42;;;;;;;8.70;5.45;;;26.50;92.80;;;;;;5085521;28;20024;-92
2020/12/04 04:44:15;;;;;;;6.03;3.70;;;26.50;93.00;;;;;;5085592;28;20052;-93
2020/12/04 04:46:48;;;;;;;;;;;26.50;92.70;;;;;;5085566;28;20050;-93
2020/12/04 04:49:29;;;;;;;3.22;1.85;;;26.40;93.10;;;;;;5083961;28;20097;-93
2020/12/04 04:51:58;;;;;;;3.15;2.03;;;26.30;93.20;;;;;;5083556;28;20012;-91
2020/12/04 04:54:26;;;;;;;4.07;1.45;;;26.30;92.90;;;;;;5083094;28;20033;-92
2020/12/04 04:56:53;;;;;;;4.15;1.98;;;26.30;92.40;;;;;;5081181;28;20045;-92
2020/12/04 04:59:21;;;;;;;4.03;1.42;;;26.30;93.10;;;;;;5074086;28;20035;-93
2020/12/04 05:01:50;;;;;;;6.32;1.70;;;26.30;93.10;;;;;;5077842;28;20027;-92
2020/12/04 05:04:17;;;;;;;2.90;1.60;;;26.30;92.90;;;;;;5069117;28;20087;-93
2020/12/04 05:06:44;;;;;;;3.15;1.75;;;26.30;92.70;;;;;;5083470;28;20324;-92
2020/12/04 05:09:25;;;;;;;3.33;1.60;;;26.30;92.90;;;;;;5074011;28;20036;-93
2020/12/04 05:12:03;;;;;;;5.00;1.92;;;26.30;92.60;;;;;;5077119;28;20012;-92
2020/12/04 05:14:29;;;;;;;3.97;1.80;;;26.30;92.60;;;;;;5072537;28;20031;-93
2020/12/04 05:16:58;;;;;;;3.83;1.80;;;26.20;93.00;;;;;;5082710;28;20082;-93
2020/12/04 05:19:37;;;;;;;4.70;1.80;;;26.10;93.30;;;;;;5063479;28;20029;-91
2020/12/04 05:22:17;;;;;;;3.88;1.48;;;26.00;93.20;;;;;;5064013;28;20024;-92
2020/12/04 05:24:47;;;;;;;4.00;1.50;;;26.00;93.20;;;;;;5063734;28;20036;-91
2020/12/04 05:27:30;;;;;;;5.18;2.13;;;26.00;93.00;;;;;;5069043;28;20029;-93
2020/12/04 05:29:59;;;;;;;6.18;1.45;;;26.00;93.10;;;;;;5065611;28;20060;-94
2020/12/04 05:32:27;;;;;;;3.20;1.33;;;26.00;92.60;;;;;;5063463;28;20017;-94
2020/12/04 05:35:12;;;;;;;4.05;1.80;;;26.10;93.10;;;;;;5063201;28;20025;-94
2020/12/04 05:37:39;;;;;;;5.15;1.98;;;26.10;93.20;;;;;;5063096;28;20013;-94
2020/12/04 05:40:06;;;;;;;3.53;1.80;;;26.10;93.10;;;;;;5063335;28;20217;-93
2020/12/04 05:42:41;;;;;;;5.00;2.33;;;26.00;93.30;;;;;;5065679;28;20021;-94
2020/12/04 05:45:10;;;;;;;3.30;1.95;;;25.90;93.60;;;;;;5067193;28;20033;-93
2020/12/04 05:47:39;;;;;;;4.72;1.85;;;25.90;93.20;;;;;;5067693;28;20043;-94
2020/12/04 05:50:08;;;;;;;4.50;1.30;;;25.90;93.40;;;;;;5067024;28;20055;-94
2020/12/04 05:52:41;;;;;;;5.60;1.65;;;25.90;93.30;;;;;;5067075;28;20036;-92
2020/12/04 05:55:10;;;;;;;4.07;1.60;;;26.00;92.90;;;;;;5067262;28;20057;-94
2020/12/04 05:58:00;;;;;;;5.05;1.75;;;26.00;93.10;;;;;;5066280;28;20055;-94
2020/12/04 06:00:26;;;;;;;4.55;1.63;;;26.00;92.90;;;;;;5066972;28;20099;-94
2020/12/04 06:03:11;;;;;;;4.53;1.40;;;26.10;92.90;;;;;;5066629;28;20329;-93
2020/12/04 06:05:39;;;;;;;4.00;1.10;;;26.00;93.10;;;;;;5067062;28;20040;-94
2020/12/04 06:08:09;;;;;;;2.83;1.42;;;26.00;92.90;;;;;;5067045;28;20021;-92
2020/12/04 06:10:42;;;;;;;4.60;1.48;;;26.00;93.10;;;;;;5070756;28;20025;-94
2020/12/04 06:13:09;;;;;;;4.38;1.50;;;26.00;92.90;;;;;;5064854;28;20021;-95
2020/12/04 06:15:36;;;;;;;6.40;1.23;;;26.00;92.90;;;;;;5066492;28;20365;-94
2020/12/04 06:18:07;;;;;;;6.15;1.58;;;25.90;92.90;;;;;;5066789;28;20017;-92
2020/12/04 06:20:40;;;;;;;2.58;1.65;;;25.90;92.90;;;;;;5066257;28;20147;-94
2020/12/04 06:23:12;;;;;;;3.72;1.50;;;25.90;92.80;;;;;;5066637;28;20020;-93
2020/12/04 06:26:07;;;;;;;1.83;1.17;;;25.90;92.80;;;;;;5066285;28;20066;-93
2020/12/04 06:28:37;;;;;;;5.10;1.40;;;25.90;92.70;;;;;;5066421;28;20064;-94
2020/12/04 06:31:10;;;;;;;2.90;1.27;;;25.90;92.70;;;;;;5066143;28;20208;-93
2020/12/04 06:33:40;;;;;;;5.40;1.50;;;25.90;92.60;;;;;;5066424;28;20056;-95
2020/12/04 06:36:09;;;;;;;1.98;1.02;;;25.90;92.50;;;;;;5067222;28;20055;-92
2020/12/04 06:38:40;;;;;;;3.45;1.15;;;25.90;92.30;;;;;;5065885;28;20021;-94
2020/12/04 06:41:25;;;;;;;3.75;1.20;;;25.90;92.10;;;;;;5065989;28;20047;-94
2020/12/04 06:44:19;;;;;;;2.78;1.30;;;25.90;91.80;;;;;;5065879;28;20021;-95
2020/12/04 06:46:55;;;;;;;1.85;1.02;;;25.90;91.60;;;;;;5063136;28;20025;-93
2020/12/04 06:49:35;;;;;;;2.47;1.20;;;25.90;91.70;;;;;;5065941;28;20033;-93
2020/12/04 06:52:48;;;;;;;3.92;0.98;;;25.90;91.40;;;;;;5066341;28;20024;-93
2020/12/04 06:55:14;;;;;;;4.38;0.90;;;25.90;91.40;;;;;;5065723;28;20096;-94
2020/12/04 06:57:41;;;;;;;2.42;1.15;;;25.80;91.30;;;;;;5068053;28;20080;-93
2020/12/04 07:00:08;;;;;;;5.05;1.30;;;25.80;91.20;;;;;;5065903;28;20059;-94
2020/12/04 07:02:37;;;;;;;1.27;0.90;;;25.80;91.30;;;;;;5065779;28;20017;-94
2020/12/04 07:05:04;;;;;;;1.10;0.80;;;25.80;91.40;;;;;;5066921;28;20268;-94
2020/12/04 07:07:30;;;;;;;3.60;1.38;;;25.80;91.50;;;;;;5067395;28;20025;-92
2020/12/04 07:10:03;;;;;;;4.20;1.30;;;25.70;91.40;;;;;;5065683;28;20033;-94
2020/12/04 07:12:31;;;;;;;2.70;1.10;;;25.70;91.50;;;;;;5065672;28;20351;-96
2020/12/04 07:15:00;;;;;;;4.60;1.60;;;25.70;91.50;;;;;;5066392;28;20036;-96
2020/12/04 07:17:31;;;;;;;3.10;1.00;;;25.70;91.50;;;;;;5073723;28;20024;-95
2020/12/04 07:20:04;;;;;;;6.85;1.55;;;25.70;91.60;;;;;;5073087;28;20336;-95
2020/12/04 07:22:48;;;;;;;2.08;0.90;;;25.70;91.60;;;;;;5073721;28;20031;-96
2020/12/04 07:25:15;;;;;;;2.13;1.55;;;25.70;91.50;;;;;;5065476;28;20078;-95
2020/12/04 07:27:42;;;;;;;2.65;1.27;;;25.70;91.40;;;;;;5066172;28;20023;-96
2020/12/04 07:30:25;;;;;;;3.05;1.33;;;25.60;91.40;;;;;;5065398;28;20055;-96
2020/12/04 07:32:57;;;;;;;2.65;0.90;;;25.60;91.70;;;;;;5073749;28;20017;-94
2020/12/04 07:35:24;;;;;;;5.88;1.00;;;25.60;91.60;;;;;;5073446;28;20025;-95
2020/12/04 07:37:51;;;;;;;2.25;1.00;;;25.50;91.60;;;;;;5072619;28;20017;-95
2020/12/04 07:40:18;;;;;;;4.03;1.08;;;25.50;91.70;;;;;;5072522;28;20029;-95
2020/12/04 07:42:45;;;;;;;2.55;1.17;;;25.50;91.60;;;;;;5072557;28;20240;-94
2020/12/04 07:45:16;;;;;;;4.28;1.50;;;25.50;91.60;;;;;;5071081;28;20100;-94
2020/12/04 07:47:44;;;;;;;3.00;0.93;;;25.40;91.30;;;;;;5064675;28;20020;-95
2020/12/04 07:50:15;;;;;;;5.07;1.08;;;25.30;91.20;;;;;;5064951;28;20056;-96
2020/12/04 07:52:52;;;;;;;3.70;1.02;;;25.30;91.20;;;;;;5066581;28;20092;-93
2020/12/04 07:55:21;;;;;;;4.28;1.05;;;25.30;91.20;;;;;;5064758;28;20025;-94
2020/12/04 07:58:19;;;;;;;2.42;0.90;;;25.30;91.10;;;;;;5064580;28;20076;-93
2020/12/04 08:00:46;;;;;;;3.17;1.13;;;25.30;90.90;;;;;;5064596;28;20103;-93
2020/12/04 08:03:14;;;;;;;2.00;1.02;;;25.30;91.00;;;;;;5064483;28;20097;-94
2020/12/04 08:05:41;;;;;;;2.33;1.00;;;25.20;91.10;;;;;;5064258;28;20321;-94
2020/12/04 08:08:18;;;;;;;3.13;1.08;;;25.20;91.00;;;;;;5065626;28;20021;-95
2020/12/04 08:10:45;;;;;;;1.83;0.85;;;25.20;91.00;;;;;;5072016;28;20032;-94
2020/12/04 08:13:13;;;;;;;3.72;1.00;;;25.20;90.90;;;;;;5066046;28;20024;-95
2020/12/04 08:15:43;;;;;;;4.05;1.13;;;25.20;91.10;;;;;;5064523;28;20020;-95
2020/12/04 08:18:10;;;;;;;3.55;1.05;;;25.20;90.80;;;;;;5063797;28;20021;-95
2020/12/04 08:20:37;;;;;;;4.32;1.33;;;25.20;90.90;;;;;;5064959;28;20031;-95
2020/12/04 08:23:04;;;;;;;1.75;0.80;;;25.20;90.70;;;;;;5070171;28;20038;-94
2020/12/04 08:25:31;;;;;;;2.83;0.90;;;25.20;90.60;;;;;;5069789;28;20031;-92
2020/12/04 08:28:00;;;;;;;4.43;1.30;;;25.20;90.70;;;;;;5071834;28;20024;-92
2020/12/04 08:30:28;;;;;;;3.55;1.73;;;25.20;90.20;;;;;;5041428;28;20025;-95
2020/12/04 08:32:55;;;;;;;2.20;0.98;;;25.20;90.30;;;;;;5072498;28;20066;-94
2020/12/04 08:35:22;;;;;;;1.45;0.75;;;25.20;89.60;;;;;;5071414;28;20079;-95
2020/12/04 08:37:51;;;;;;;2.13;0.82;;;25.30;89.90;;;;;;5071375;28;20091;-95
2020/12/04 08:40:30;;;;;;;3.00;0.98;;;25.20;89.80;;;;;;5071507;28;20021;-95
2020/12/04 08:43:14;;;;;;;2.05;0.90;;;25.20;89.40;;;;;;5071426;28;20024;-95
2020/12/04 08:45:49;;;;;;;4.18;1.17;;;25.20;89.80;;;;;;5071307;28;20032;-95
2020/12/04 08:48:21;;;;;;;2.55;0.90;;;25.20;89.30;;;;;;5071238;28;20017;-95
2020/12/04 08:50:53;;;;;;;2.00;0.82;;;25.20;89.30;;;;;;5071175;28;20027;-95
2020/12/04 08:53:22;;;;;;;2.28;0.70;;;25.20;88.80;;;;;;5070821;28;20084;-95
2020/12/04 08:55:54;;;;;;;1.77;1.00;;;25.20;88.80;;;;;;5069171;28;20045;-93
2020/12/04 08:58:22;;;;;;;2.78;1.00;;;25.20;87.70;;;;;;5063933;28;20020;-96
2020/12/04 09:00:52;;;;;;;3.38;0.70;;;25.20;87.60;;;;;;5069601;28;20051;-93
2020/12/04 09:03:27;;;;;;;2.28;1.00;;;25.20;87.90;;;;;;5064750;28;20020;-94
2020/12/04 09:05:57;;;;;;;2.15;0.82;;;25.20;88.50;;;;;;5063856;28;20194;-92
2020/12/04 09:08:24;;;;;;;3.85;0.80;;;25.20;88.10;;;;;;5063203;28;20116;-93
2020/12/04 09:10:50;;;;;;;1.85;0.80;;;25.20;88.00;;;;;;5063926;28;20178;-94
2020/12/04 09:13:17;;;;;;;3.10;1.30;;;25.10;88.20;;;;;;5064444;28;20017;-94
2020/12/04 09:15:44;;;;;;;2.70;0.75;;;25.20;88.70;;;;;;5070608;28;20039;-93
2020/12/04 09:18:11;;;;;;;2.22;0.82;;;25.10;88.40;;;;;;5070684;28;20088;-94
2020/12/04 09:20:38;;;;;;;13.52;1.05;;;25.10;87.70;;;;;;5070611;28;20025;-93
2020/12/04 09:23:04;;;;;;;3.92;0.90;;;25.10;88.20;;;;;;5071102;28;20016;-92
2020/12/04 09:25:32;;;;;;;4.43;1.42;;;25.00;87.90;;;;;;5071563;28;20028;-94
2020/12/04 09:28:01;;;;;;;3.92;1.10;;;25.10;87.90;;;;;;5071994;28;20046;-93
2020/12/04 09:30:28;;;;;;;3.13;1.15;;;25.00;88.00;;;;;;5070920;28;20024;-95
2020/12/04 09:32:55;;;;;;;5.97;1.48;;;25.00;88.00;;;;;;5070917;28;20024;-94
2020/12/04 09:35:21;;;;;;;2.90;1.13;;;24.90;88.10;;;;;;5070467;28;20052;-94
2020/12/04 09:37:48;;;;;;;3.03;1.17;;;24.90;88.10;;;;;;5070512;28;20043;-94
2020/12/04 09:40:18;;;;;;;2.15;1.00;;;24.90;87.90;;;;;;5070603;28;20048;-93
2020/12/04 09:42:45;;;;;;;2.75;1.13;;;24.90;87.90;;;;;;5070391;28;20027;-94
2020/12/04 09:45:13;;;;;;;1.42;0.73;;;24.90;88.70;;;;;;5070327;28;20068;-94
2020/12/04 09:47:40;;;;;;;1.63;0.60;;;24.80;88.40;;;;;;5071681;28;20025;-93
2020/12/04 09:50:11;;;;;;;2.55;0.98;;;24.80;89.00;;;;;;5070756;28;20341;-93
2020/12/04 09:52:39;;;;;;;2.38;1.25;;;24.80;87.90;;;;;;5070872;28;20025;-92
2020/12/04 09:55:07;;;;;;;3.70;1.00;;;24.80;87.30;;;;;;5070095;28;20045;-94
2020/12/04 09:57:34;;;;;;;1.38;0.90;;;24.80;86.90;;;;;;5070253;28;20032;-93
2020/12/04 10:00:06;;;;;;;2.28;0.75;;;24.80;87.60;;;;;;5070811;28;20056;-93
2020/12/04 10:02:33;;;;;;;2.17;1.10;;;24.80;87.30;;;;;;5070831;28;20021;-93
2020/12/04 10:04:59;;;;;;;1.10;0.68;;;24.80;87.20;;;;;;5070193;28;20282;-94
2020/12/04 10:07:26;;;;;;;1.42;0.70;;;24.80;87.00;;;;;;5070991;28;20025;-91
2020/12/04 10:09:53;;;;;;;2.45;1.10;;;24.80;86.40;;;;;;5072690;28;20376;-91
2020/12/04 10:12:22;;;;;;;2.67;0.98;;;24.80;86.60;;;;;;5072988;28;20009;-91
2020/12/04 10:14:49;;;;;;;2.92;0.82;;;24.80;86.90;;;;;;5074871;28;20056;-91
2020/12/04 10:17:16;;;;;;;1.67;0.90;;;24.80;86.90;;;;;;5073943;28;20021;-90
2020/12/04 10:19:44;;;;;;;4.95;0.70;;;24.70;86.90;;;;;;5073760;28;20024;-92
2020/12/04 10:22:10;;;;;;;1.08;0.77;;;24.70;86.90;;;;;;5075592;28;20039;-92
2020/12/04 10:24:37;;;;;;;2.95;1.13;;;24.60;87.60;;;;;;5072595;28;20025;-94
2020/12/04 10:27:06;;;;;;;3.22;1.00;;;24.70;87.20;;;;;;5071642;28;20040;-94
2020/12/04 10:29:34;;;;;;;2.10;0.93;;;24.70;86.90;;;;;;5074467;28;20033;-96
